Time;durP1;ratioP1;P1;durP2;ratioP2;P2;SDS_P1;SDS_P2;PMS_P1;PMS_P2;Temp;Humidity;BMP_temperature;BMP_pressure;BME280_temperature;BME280_humidity;BME280_pressure;Samples;Min_cycle;Max_cycle;Signal;HPM_P1;HPM_P2
2021/10/03 00:01:05;;;;;;;45.70;29.90;;;;;;;3.56;73.47;102235.84;1716564;82;21406;-74
2021/10/03 00:03:33;;;;;;;50.67;29.25;;;;;;;3.55;73.75;102234.13;1716728;83;20876;-73
2021/10/03 00:06:02;;;;;;;51.77;28.27;;;;;;;3.53;73.85;102240.20;1716768;82;21121;-74
2021/10/03 00:08:29;;;;;;;54.63;30.30;;;;;;;3.57;73.91;102237.58;1716602;82;21030;-74
2021/10/03 00:10:56;;;;;;;57.70;30.23;;;;;;;3.57;73.88;102239.73;1716565;83;20956;-75
2021/10/03 00:13:23;;;;;;;61.33;34.23;;;;;;;;;;1716535;83;20857;-75
2021/10/03 00:15:51;;;;;;;64.27;32.83;;;;;;;3.57;73.90;102231.95;1716654;83;20943;-75
2021/10/03 00:18:18;;;;;;;65.92;33.92;;;;;;;3.56;73.73;102226.75;1714205;82;21165;-75
2021/10/03 00:20:45;;;;;;;59.35;33.33;;;;;;;3.54;73.54;102231.98;1711022;83;21393;-74
2021/10/03 00:23:12;;;;;;;58.98;30.92;;;;;;;3.51;73.35;102223.78;1711305;83;21004;-75
2021/10/03 00:25:38;;;;;;;59.70;32.40;;;;;;;3.47;73.33;102230.28;1730552;82;20948;-73
2021/10/03 00:28:07;;;;;;;58.05;30.72;;;;;;;3.43;73.30;102223.39;1744378;82;20943;-74
2021/10/03 00:30:39;;;;;;;53.08;28.95;;;;;;;3.37;73.30;102221.66;1744250;82;21529;-74
2021/10/03 00:33:05;;;;;;;52.27;28.32;;;;;;;3.34;73.35;102224.28;1744472;82;20900;-75
2021/10/03 00:35:34;;;;;;;50.30;26.02;;;;;;;3.30;73.47;102227.31;1744210;82;20952;-75
2021/10/03 00:38:03;;;;;;;50.17;28.40;;;;;;;3.30;73.67;102235.09;1744317;82;20976;-75
2021/10/03 00:40:32;;;;;;;56.10;27.13;;;;;;;3.30;73.80;102228.61;1744247;82;20952;-75
2021/10/03 00:43:00;;;;;;;49.95;25.62;;;;;;;3.31;73.93;102230.75;1744598;82;21156;-74
2021/10/03 00:45:28;;;;;;;54.35;27.75;;;;;;;3.32;73.98;102232.50;1744133;82;20841;-74
2021/10/03 00:47:55;;;;;;;48.98;27.07;;;;;;;3.29;73.98;102232.08;1744108;82;20898;-74
2021/10/03 00:50:21;;;;;;;35.13;21.25;;;;;;;3.26;73.96;102232.08;1744089;82;20889;-75
2021/10/03 00:52:49;;;;;;;31.93;20.60;;;;;;;3.24;74.01;102235.10;1744091;82;21516;-74
2021/10/03 00:55:17;;;;;;;42.08;20.48;;;;;;;3.21;74.09;102241.60;1744262;81;21096;-74
2021/10/03 00:57:46;;;;;;;35.33;19.42;;;;;;;3.21;74.30;102243.34;1744094;82;20932;-73
2021/10/03 01:00:13;;;;;;;36.13;20.85;;;;;;;3.21;74.51;102237.72;1744408;81;20888;-73
2021/10/03 01:02:41;;;;;;;35.88;20.97;;;;;;;3.22;74.61;102238.12;1744217;82;21414;-74
2021/10/03 01:05:08;;;;;;;41.60;23.32;;;;;;;3.26;74.59;102241.59;1744624;82;20948;-74
2021/10/03 01:07:36;;;;;;;39.50;22.95;;;;;;;3.28;74.57;102241.16;1744357;82;21827;-74
2021/10/03 01:10:07;;;;;;;39.18;21.62;;;;;;;3.30;74.47;102233.79;1744180;82;20877;-73
2021/10/03 01:12:35;;;;;;;39.13;23.22;;;;;;;3.34;74.36;102237.69;1744343;82;20913;-74
2021/10/03 01:15:04;;;;;;;40.08;22.42;;;;;;;3.32;74.27;102236.39;1744656;82;21494;-73
2021/10/03 01:17:31;;;;;;;34.70;20.20;;;;;;;3.30;74.08;102237.68;1744296;82;20944;-74
2021/10/03 01:19:59;;;;;;;40.95;22.73;;;;;;;3.27;74.00;102233.81;1744226;81;21816;-74
2021/10/03 01:22:26;;;;;;;34.98;21.17;;;;;;;3.24;74.03;102241.58;1744331;82;20976;-74
2021/10/03 01:24:53;;;;;;;41.05;21.95;;;;;;;3.21;74.10;102241.60;1744513;82;20912;-75
2021/10/03 01:27:21;;;;;;;51.77;22.80;;;;;;;3.19;74.13;102251.11;1744287;81;20932;-74
2021/10/03 01:29:51;;;;;;;38.35;22.15;;;;;;;3.17;74.12;102250.25;1744539;82;21026;-74
2021/10/03 01:32:18;;;;;;;40.20;22.42;;;;;;;3.18;74.07;102246.81;1744299;82;21154;-75
2021/10/03 01:34:46;;;;;;;46.70;24.92;;;;;;;3.17;73.95;102244.22;1744155;82;21381;-74
2021/10/03 01:37:12;;;;;;;41.13;24.00;;;;;;;3.15;73.79;102245.50;1744337;82;20932;-74
2021/10/03 01:39:40;;;;;;;48.05;26.00;;;;;;;3.14;73.73;102250.72;1744245;81;20971;-74
2021/10/03 01:42:07;;;;;;;42.73;23.73;;;;;;;3.10;73.76;102248.11;1744211;81;20841;-73
2021/10/03 01:44:34;;;;;;;42.40;22.95;;;;;;;3.08;73.74;102242.51;1744571;81;21498;-74
2021/10/03 01:47:02;;;;;;;41.65;24.12;;;;;;;3.04;73.88;102242.08;1744352;82;20932;-75
2021/10/03 01:49:30;;;;;;;39.80;23.15;;;;;;;3.00;74.15;102234.77;1744293;82;20968;-75
2021/10/03 01:51:56;;;;;;;37.55;20.65;;;;;;;2.98;74.36;102238.20;1715479;81;20941;-74
2021/10/03 01:54:23;;;;;;;49.18;23.22;;;;;;;2.97;74.50;102237.78;1744402;82;20855;-73
2021/10/03 01:56:50;;;;;;;37.63;20.27;;;;;;;2.97;74.72;102233.90;1744324;82;21517;-74
2021/10/03 01:59:17;;;;;;;36.03;19.52;;;;;;;2.98;74.81;102234.31;1744217;82;21008;-72
2021/10/03 02:01:45;;;;;;;36.28;20.57;;;;;;;3.00;74.79;102229.59;1744381;81;20853;-73
2021/10/03 02:04:15;;;;;;;37.75;21.17;;;;;;;3.03;74.73;102227.41;1744610;81;21449;-73
2021/10/03 02:06:45;;;;;;;43.78;22.40;;;;;;;3.05;74.52;102233.02;1744341;81;20955;-73
2021/10/03 02:09:12;;;;;;;35.40;20.08;;;;;;;3.08;74.34;102236.88;1744513;82;21131;-73
2021/10/03 02:11:42;;;;;;;38.42;22.10;;;;;;;3.09;74.19;102234.73;1744196;82;21517;-72
2021/10/03 02:14:10;;;;;;;37.25;22.50;;;;;;;3.10;74.12;102233.00;1744443;82;21043;-74
2021/10/03 02:16:37;;;;;;;35.38;20.60;;;;;;;3.10;74.18;102229.11;1744292;82;20932;-73
2021/10/03 02:19:04;;;;;;;33.13;20.55;;;;;;;3.10;74.33;102226.52;1747280;82;21296;-74
2021/10/03 02:21:30;;;;;;;38.88;19.12;;;;;;;3.11;74.47;102233.01;1750120;82;21106;-73
2021/10/03 02:23:57;;;;;;;31.37;18.12;;;;;;;3.14;74.69;102235.16;1750084;82;20988;-73
2021/10/03 02:26:24;;;;;;;33.25;17.92;;;;;;;3.15;74.83;102233.84;1750134;82;20853;-73
2021/10/03 02:28:51;;;;;;;26.42;17.17;;;;;;;3.21;74.88;102229.09;1750510;81;21346;-71
2021/10/03 02:31:18;;;;;;;31.52;18.42;;;;;;;3.26;74.85;102232.08;1750460;82;20936;-72
2021/10/03 02:33:48;;;;;;;32.05;18.70;;;;;;;3.31;74.87;102229.46;1750391;82;21506;-73
2021/10/03 02:36:16;;;;;;;31.85;19.27;;;;;;;3.35;74.83;102227.73;1750351;82;20888;-73
2021/10/03 02:38:43;;;;;;;28.92;18.48;;;;;;;3.36;74.70;102222.95;1750097;80;20920;-74
2021/10/03 02:41:10;;;;;;;26.12;17.55;;;;;;;3.34;74.59;102224.72;1750290;82;20928;-73
2021/10/03 02:43:40;;;;;;;34.67;16.95;;;;;;;3.32;74.51;102229.91;1750141;80;21462;-75
2021/10/03 02:46:08;;;;;;;40.38;19.73;;;;;;;3.28;74.44;102225.59;1750396;82;21115;-74
2021/10/03 02:48:37;;;;;;;31.68;17.85;;;;;;;3.24;74.43;102223.44;1750004;82;20885;-73
2021/10/03 02:51:04;;;;;;;29.90;17.15;;;;;;;3.23;74.48;102228.64;1750404;82;20924;-74
2021/10/03 02:53:31;;;;;;;32.38;17.75;;;;;;;3.22;74.47;102229.06;1750258;82;20997;-74
2021/10/03 02:55:57;;;;;;;32.42;18.60;;;;;;;3.25;74.54;102234.25;1750242;80;20833;-72
2021/10/03 02:58:24;;;;;;;26.85;17.00;;;;;;;3.28;74.58;102228.19;1750065;82;21103;-73
2021/10/03 03:00:52;;;;;;;30.77;17.32;;;;;;;3.32;74.58;102226.87;1750310;82;20993;-72
2021/10/03 03:03:19;;;;;;;33.73;18.62;;;;;;;3.37;74.50;102232.48;1750001;80;20928;-72
2021/10/03 03:05:46;;;;;;;27.13;15.95;;;;;;;3.41;74.43;102223.82;1749991;82;20925;-73
2021/10/03 03:08:13;;;;;;;26.68;16.25;;;;;;;3.46;74.37;102219.47;1750136;82;20964;-73
2021/10/03 03:10:40;;;;;;;33.15;17.70;;;;;;;3.48;74.29;102225.52;1749877;82;21613;-73
2021/10/03 03:13:07;;;;;;;40.65;17.45;;;;;;;3.49;74.32;102220.33;1750007;82;21315;-74
2021/10/03 03:15:34;;;;;;;30.88;17.62;;;;;;;3.53;74.32;102225.94;1750130;80;20865;-75
2021/10/03 03:18:01;;;;;;;36.83;18.67;;;;;;;3.59;74.26;102230.66;1749995;80;20916;-74
2021/10/03 03:20:28;;;;;;;38.83;19.12;;;;;;;3.65;74.22;102227.59;1736840;81;21395;-74
2021/10/03 03:22:55;;;;;;;38.13;18.10;;;;;;;3.73;74.21;102224.94;1736183;82;21507;-74
2021/10/03 03:25:21;;;;;;;37.00;19.67;;;;;;;3.79;74.22;102230.10;1735977;82;20941;-73
2021/10/03 03:27:49;;;;;;;37.53;21.17;;;;;;;3.85;74.10;102223.59;1715373;82;20928;-73
2021/10/03 03:30:16;;;;;;;37.88;19.32;;;;;;;3.90;74.04;102224.41;1735930;82;21470;-73
2021/10/03 03:32:43;;;;;;;40.35;20.15;;;;;;;3.95;73.86;102222.64;1736516;82;20972;-73
2021/10/03 03:35:09;;;;;;;37.95;19.32;;;;;;;3.99;73.79;102220.89;1736017;81;21501;-74
2021/10/03 03:37:36;;;;;;;37.83;19.17;;;;;;;4.03;73.76;102230.83;1736263;82;20881;-74
2021/10/03 03:40:06;;;;;;;35.05;18.07;;;;;;;4.06;73.86;102235.99;1736038;82;20845;-73
2021/10/03 03:42:33;;;;;;;30.52;18.45;;;;;;;4.11;74.02;102238.11;1736020;82;20902;-74
2021/10/03 03:45:00;;;;;;;35.95;20.02;;;;;;;4.19;74.20;102243.27;1736154;82;20933;-74
2021/10/03 03:47:27;;;;;;;47.08;20.43;;;;;;;4.25;74.33;102241.48;1736093;82;22240;-74
2021/10/03 03:49:53;;;;;;;48.13;22.17;;;;;;;4.36;74.42;102244.01;1736158;82;20968;-74
2021/10/03 03:52:20;;;;;;;48.25;21.80;;;;;;;4.44;74.35;102243.48;1736155;82;20972;-74
2021/10/03 03:54:47;;;;;;;46.60;22.15;;;;;;;4.52;74.20;102241.69;1736306;81;21035;-74
2021/10/03 03:57:14;;;;;;;37.65;21.35;;;;;;;4.60;74.10;102241.61;1736058;81;20968;-75
2021/10/03 03:59:41;;;;;;;37.53;19.80;;;;;;;4.67;73.96;102242.41;1735936;81;21154;-75
2021/10/03 04:02:07;;;;;;;37.90;19.23;;;;;;;4.73;73.81;102241.06;1736122;82;20893;-74
2021/10/03 04:04:34;;;;;;;33.98;20.10;;;;;;;4.79;73.88;102241.02;1736276;82;20937;-73
2021/10/03 04:07:03;;;;;;;41.35;21.80;;;;;;;4.83;73.96;102241.86;1735938;81;21489;-74
2021/10/03 04:09:31;;;;;;;40.90;22.02;;;;;;;4.91;73.98;102241.32;1736601;81;20944;-74
2021/10/03 04:11:58;;;;;;;40.23;24.02;;;;;;;4.98;73.82;102248.20;1736044;82;21543;-73
2021/10/03 04:14:25;;;;;;;41.08;27.42;;;;;;;5.07;73.77;102252.41;1735849;82;21004;-75
2021/10/03 04:16:51;;;;;;;66.95;37.98;;;;;;;5.15;73.65;102251.91;1735992;82;20921;-73
2021/10/03 04:19:19;;;;;;;71.90;38.02;;;;;;;5.23;73.39;102246.63;1740467;81;20943;-74
2021/10/03 04:21:47;;;;;;;66.60;37.98;;;;;;;5.29;73.07;102259.55;1750107;82;20872;-74
2021/10/03 04:24:13;;;;;;;69.80;37.28;;;;;;;5.33;72.86;102256.03;1750193;80;21477;-74
2021/10/03 04:26:40;;;;;;;55.00;28.95;;;;;;;5.36;72.68;102256.87;1750229;82;20928;-73
2021/10/03 04:29:07;;;;;;;56.70;29.32;;;;;;;5.40;72.64;102258.56;1750402;82;20869;-74
2021/10/03 04:31:34;;;;;;;44.10;24.25;;;;;;;5.42;72.70;102261.13;1749972;82;20877;-75
2021/10/03 04:34:01;;;;;;;48.55;26.52;;;;;;;5.46;72.79;102257.61;1750311;82;20975;-73
2021/10/03 04:36:28;;;;;;;48.68;26.05;;;;;;;5.51;72.85;102258.41;1749939;82;21964;-75
2021/10/03 04:38:55;;;;;;;51.25;25.88;;;;;;;5.58;72.92;102260.07;1750244;82;20928;-73
2021/10/03 04:41:21;;;;;;;50.20;26.77;;;;;;;5.66;72.96;102257.36;1750088;82;21005;-74
2021/10/03 04:43:48;;;;;;;53.73;25.88;;;;;;;5.75;73.03;102261.13;1750090;82;21026;-74
2021/10/03 04:46:15;;;;;;;47.20;27.42;;;;;;;5.84;72.81;102261.45;1750118;82;21018;-74
2021/10/03 04:48:42;;;;;;;50.73;26.82;;;;;;;5.92;72.76;102262.66;1750297;82;21471;-75
2021/10/03 04:51:09;;;;;;;45.92;23.15;;;;;;;6.05;72.85;102253.83;1750034;82;21461;-74
2021/10/03 04:53:37;;;;;;;45.12;21.68;;;;;;;6.19;72.83;102259.67;1750253;82;20876;-75
2021/10/03 04:56:04;;;;;;;20.20;12.58;;;;;;;6.33;72.66;102252.09;1750047;82;20936;-74
2021/10/03 04:58:33;;;;;;;24.00;14.28;;;;;;;6.43;72.34;102259.73;1750207;80;21362;-73
2021/10/03 05:01:02;;;;;;;17.50;9.93;;;;;;;6.59;72.15;102256.87;1750120;80;21410;-74
2021/10/03 05:03:35;;;;;;;20.10;10.08;;;;;;;6.80;71.67;102255.62;1750114;82;20909;-74
2021/10/03 05:06:07;;;;;;;16.57;9.70;;;;;;;7.02;70.97;102253.48;1750088;82;20928;-74
2021/10/03 05:08:35;;;;;;;16.42;10.23;;;;;;;7.21;69.98;102248.80;1750240;82;20932;-74
2021/10/03 05:11:02;;;;;;;16.93;10.15;;;;;;;7.38;69.26;102249.32;1750183;82;20999;-74
2021/10/03 05:13:29;;;;;;;15.50;10.23;;;;;;;7.68;68.40;102255.62;1750183;80;21562;-74
2021/10/03 05:15:57;;;;;;;19.17;10.55;;;;;;;8.04;67.56;102258.31;1750523;80;20908;-75
2021/10/03 05:18:25;;;;;;;15.70;10.90;;;;;;;8.29;66.34;102259.04;1750163;82;20896;-74
2021/10/03 05:20:52;;;;;;;29.67;16.35;;;;;;;8.40;65.53;102262.28;1738372;81;21414;-74
2021/10/03 05:23:20;;;;;;;16.87;10.95;;;;;;;8.46;64.95;102262.14;1736175;82;20953;-75
2021/10/03 05:25:47;;;;;;;18.05;9.88;;;;;;;8.52;64.25;102260.29;1736068;82;21142;-74
2021/10/03 05:28:13;;;;;;;14.75;8.73;;;;;;;8.62;64.21;102257.84;1736244;82;21335;-75
2021/10/03 05:30:40;;;;;;;11.97;8.93;;;;;;;8.71;64.12;102261.52;1736386;81;20957;-74
2021/10/03 05:33:07;;;;;;;11.70;9.40;;;;;;;8.82;63.62;102262.09;1736096;82;21019;-73
2021/10/03 05:35:34;;;;;;;16.12;9.50;;;;;;;8.93;63.11;102267.05;1736509;82;20850;-74
2021/10/03 05:38:03;;;;;;;14.60;9.18;;;;;;;9.13;62.53;102273.05;1736262;82;21980;-74
2021/10/03 05:40:31;;;;;;;17.23;9.73;;;;;;;9.64;61.57;102268.55;1736500;82;20929;-71
2021/10/03 05:42:58;;;;;;;12.88;8.58;;;;;;;10.44;60.05;102274.42;1737376;82;20979;-74
2021/10/03 05:45:25;;;;;;;14.05;8.00;;;;;;;11.32;58.76;102261.30;1736755;81;20901;-72
2021/10/03 05:47:52;;;;;;;16.23;8.75;;;;;;;12.20;57.03;102261.88;1735997;82;20972;-74
2021/10/03 05:50:19;;;;;;;15.25;9.05;;;;;;;13.06;55.01;102267.48;1736177;82;21124;-75
2021/10/03 05:52:47;;;;;;;17.17;8.03;;;;;;;13.89;52.45;102265.03;1736062;82;20933;-76
2021/10/03 05:55:15;;;;;;;15.20;7.92;;;;;;;14.64;50.46;102268.45;1736128;81;20999;-74
2021/10/03 05:57:42;;;;;;;11.08;8.45;;;;;;;15.33;47.91;102276.74;1736447;82;20968;-75
2021/10/03 06:00:11;;;;;;;12.20;8.23;;;;;;;15.90;46.49;102266.59;1736162;82;20972;-74
2021/10/03 06:02:38;;;;;;;12.13;8.05;;;;;;;16.30;45.34;102269.61;1736074;82;21138;-76
2021/10/03 06:05:05;;;;;;;15.13;8.08;;;;;;;16.81;44.59;102275.95;1736112;81;21403;-76
2021/10/03 06:07:32;;;;;;;10.40;7.62;;;;;;;17.33;42.70;102282.52;1736187;82;21015;-75
2021/10/03 06:09:59;;;;;;;14.10;8.38;;;;;;;17.85;42.20;102275.73;1735974;81;21522;-75
2021/10/03 06:12:26;;;;;;;18.00;8.63;;;;;;;18.35;41.51;102277.75;1736231;82;20949;-75
2021/10/03 06:14:53;;;;;;;14.78;8.23;;;;;;;18.78;40.33;102272.22;1736049;82;21135;-74
2021/10/03 06:17:20;;;;;;;21.57;8.45;;;;;;;19.19;39.53;102275.65;1736005;81;20993;-75
2021/10/03 06:19:47;;;;;;;9.63;7.45;;;;;;;19.58;38.55;102269.28;1739097;81;20936;-76
2021/10/03 06:22:14;;;;;;;12.55;7.72;;;;;;;20.00;37.80;102268.48;1750195;81;20869;-75
2021/10/03 06:24:41;;;;;;;14.50;7.42;;;;;;;20.44;36.98;102264.81;1750152;81;20896;-75
2021/10/03 06:27:08;;;;;;;12.50;8.00;;;;;;;20.83;36.03;102262.73;1750028;82;21124;-75
2021/10/03 06:29:35;;;;;;;10.28;7.87;;;;;;;21.21;35.50;102267.77;1749908;82;20913;-76
2021/10/03 06:32:03;;;;;;;12.35;7.30;;;;;;;21.51;35.00;102262.31;1750119;82;21378;-81
2021/10/03 06:34:30;;;;;;;10.13;6.62;;;;;;;21.72;34.14;102260.58;1750071;80;21480;-80
2021/10/03 06:36:57;;;;;;;10.75;6.87;;;;;;;21.93;33.98;102261.13;1750504;80;20893;-82
2021/10/03 06:39:26;;;;;;;14.98;8.05;;;;;;;22.22;33.62;102261.41;1722668;82;20865;-80
2021/10/03 06:41:53;;;;;;;10.88;5.92;;;;;;;22.55;33.27;102261.73;1750425;82;20988;-82
2021/10/03 06:44:19;;;;;;;10.23;6.03;;;;;;;22.91;32.15;102269.42;1750206;82;20963;-82
2021/10/03 06:46:46;;;;;;;11.50;6.12;;;;;;;23.12;31.49;102266.25;1750421;82;21390;-78
2021/10/03 06:49:13;;;;;;;12.05;5.65;;;;;;;23.32;31.47;102267.19;1750199;82;20868;-77
2021/10/03 06:51:43;;;;;;;8.73;5.47;;;;;;;23.53;30.95;102259.06;1750091;82;20932;-79
2021/10/03 06:54:10;;;;;;;8.43;5.75;;;;;;;23.74;31.22;102264.31;1750065;82;21377;-79
2021/10/03 06:56:38;;;;;;;10.60;6.72;;;;;;;23.94;31.40;102250.48;1750346;82;20892;-79
2021/10/03 06:59:05;;;;;;;6.95;5.05;;;;;;;24.12;29.86;102260.50;1750108;82;20861;-81
2021/10/03 07:01:32;;;;;;;13.00;5.10;;;;;;;24.20;29.90;102253.95;1750038;80;21354;-81
2021/10/03 07:03:59;;;;;;;8.00;5.17;;;;;;;24.38;29.80;102253.58;1750250;80;21140;-81
2021/10/03 07:06:26;;;;;;;12.68;4.80;;;;;;;24.56;29.68;102252.38;1750652;80;20962;-81
2021/10/03 07:08:53;;;;;;;11.48;4.92;;;;;;;24.72;28.33;102250.47;1750047;80;20896;-82
2021/10/03 07:11:20;;;;;;;12.35;5.65;;;;;;;24.78;27.25;102254.39;1750559;82;20936;-80
2021/10/03 07:13:49;;;;;;;11.53;5.67;;;;;;;24.80;28.08;102251.91;1750099;80;21449;-83
2021/10/03 07:16:17;;;;;;;13.72;6.08;;;;;;;24.94;28.76;102249.75;1750339;80;21114;-82
2021/10/03 07:18:44;;;;;;;14.45;6.55;;;;;;;25.11;28.04;102248.14;1750258;82;20884;-79
2021/10/03 07:21:11;;;;;;;7.75;5.12;;;;;;;25.22;27.78;102247.47;1740869;80;20945;-81
2021/10/03 07:23:39;;;;;;;14.25;5.70;;;;;;;25.36;27.57;102244.78;1736185;82;20854;-81
2021/10/03 07:26:07;;;;;;;8.40;5.50;;;;;;;25.49;27.58;102247.63;1736429;82;20873;-79
2021/10/03 07:28:34;;;;;;;8.45;5.47;;;;;;;25.62;27.26;102236.02;1736096;81;21111;-80
2021/10/03 07:31:03;;;;;;;9.55;4.97;;;;;;;25.78;27.16;102236.69;1736057;82;21054;-81
2021/10/03 07:33:30;;;;;;;8.50;4.80;;;;;;;25.99;27.26;102232.37;1736346;82;21414;-81
2021/10/03 07:35:57;;;;;;;8.15;4.35;;;;;;;26.22;25.90;102230.06;1736071;81;20861;-80
2021/10/03 07:38:25;;;;;;;12.65;3.62;;;;;;;26.31;26.00;102221.05;1736399;82;20885;-78
2021/10/03 07:40:51;;;;;;;11.12;3.90;;;;;;;26.49;25.34;102216.97;1736076;81;22154;-80
2021/10/03 07:43:18;;;;;;;12.05;3.45;;;;;;;26.59;25.43;102218.23;1736252;81;20830;-73
2021/10/03 07:45:45;;;;;;;12.68;5.25;;;;;;;26.64;24.61;102204.66;1736135;81;20885;-72
2021/10/03 07:48:12;;;;;;;7.95;3.87;;;;;;;26.69;23.81;102213.59;1736328;82;21366;-73
2021/10/03 07:50:39;;;;;;;7.25;3.90;;;;;;;26.61;24.04;102216.23;1735559;82;20881;-73
2021/10/03 07:53:06;;;;;;;6.25;2.60;;;;;;;26.53;24.11;102212.13;1735187;82;21562;-73
2021/10/03 07:55:33;;;;;;;7.72;3.65;;;;;;;26.57;24.32;102205.44;1734777;81;21529;-73
2021/10/03 07:58:03;;;;;;;6.87;2.75;;;;;;;26.70;24.63;102207.20;1734418;82;20964;-73
2021/10/03 08:00:30;;;;;;;6.53;2.58;;;;;;;26.86;24.00;102202.42;1735139;81;20897;-71
2021/10/03 08:02:57;;;;;;;5.60;2.72;;;;;;;26.96;23.74;102212.55;1735873;81;20924;-74
2021/10/03 08:05:25;;;;;;;5.33;2.87;;;;;;;27.00;23.53;102200.45;1735927;82;21513;-73
2021/10/03 08:07:51;;;;;;;4.55;2.10;;;;;;;27.07;23.32;102206.87;1736327;82;20921;-74
2021/10/03 08:10:18;;;;;;;7.65;2.42;;;;;;;27.14;22.53;102200.84;1736120;82;20937;-74
2021/10/03 08:12:47;;;;;;;4.53;1.80;;;;;;;27.08;22.58;102211.78;1736292;82;20936;-76
2021/10/03 08:15:14;;;;;;;4.12;1.95;;;;;;;26.90;21.67;102198.89;1736101;82;20913;-77
2021/10/03 08:17:42;;;;;;;4.15;2.30;;;;;;;26.62;21.45;102197.24;1735608;81;21011;-75
2021/10/03 08:20:09;;;;;;;25.30;15.90;;;;;;;26.25;21.79;102193.42;1735794;81;21016;-78
2021/10/03 08:22:36;;;;;;;6.53;2.45;;;;;;;26.05;22.50;102196.30;1736108;82;20920;-76
2021/10/03 08:25:06;;;;;;;6.42;2.80;;;;;;;26.13;23.53;102190.66;1736018;82;20984;-74
2021/10/03 08:27:34;;;;;;;10.18;2.22;;;;;;;26.40;22.78;102193.71;1736152;82;21506;-76
2021/10/03 08:30:01;;;;;;;8.60;2.62;;;;;;;26.64;22.39;102191.20;1736004;82;21115;-75
2021/10/03 08:35:09;;;;;;;8.18;2.45;;;;;;;26.79;21.78;102176.66;1816305;79;22692;-74
2021/10/03 08:37:36;;;;;;;5.10;1.85;;;;;;;26.66;20.97;102186.50;1724670;83;20983;-73
2021/10/03 08:40:06;;;;;;;7.60;2.25;;;;;;;26.67;20.61;102188.69;1754616;81;21532;-75
2021/10/03 08:42:34;;;;;;;3.75;1.40;;;;;;;26.65;20.82;102182.11;1754882;81;20923;-74
2021/10/03 08:45:01;;;;;;;3.35;1.80;;;;;;;26.59;20.04;102192.67;1754674;81;20869;-73
2021/10/03 08:47:29;;;;;;;23.20;14.35;;;;;;;26.56;21.16;102180.38;1754708;81;20971;-76
2021/10/03 08:49:57;;;;;;;11.45;2.55;;;;;;;26.72;20.33;102179.63;1754949;81;21011;-75
2021/10/03 08:52:25;;;;;;;4.08;2.15;;;;;;;26.78;21.32;102190.27;1754539;81;22178;-76
2021/10/03 08:54:52;;;;;;;5.92;2.72;;;;;;;26.72;20.04;102172.89;1754271;81;20995;-77
2021/10/03 08:57:19;;;;;;;6.80;2.42;;;;;;;26.51;19.86;102181.34;1756187;81;20892;-70
2021/10/03 09:00:17;;;;;;;6.30;2.60;;;;;;;26.19;20.52;102191.36;1756252;81;20952;-73
2021/10/03 09:03:07;;;;;;;10.55;3.00;;;;;;;26.05;20.29;102183.36;1754979;81;21373;-75
2021/10/03 09:05:53;;;;;;;8.90;2.40;;;;;;;25.84;20.53;102180.98;1754828;81;21877;-75
2021/10/03 09:08:26;;;;;;;9.48;2.90;;;;;;;25.47;20.96;102179.27;1754578;81;20931;-76
2021/10/03 09:11:03;;;;;;;7.65;3.37;;;;;;;25.06;21.19;102179.27;1754651;81;20932;-75
2021/10/03 09:13:36;;;;;;;6.80;2.77;;;;;;;24.54;21.76;102173.05;1754536;81;20908;-74
2021/10/03 09:16:33;;;;;;;7.40;3.83;;;;;;;24.17;22.39;102177.84;1754715;81;21723;-74
2021/10/03 09:19:04;;;;;;;8.95;3.72;;;;;;;23.91;22.71;102163.68;1754616;81;21168;-74
2021/10/03 09:21:38;;;;;;;4.75;3.80;;;;;;;23.68;22.97;102172.94;1753565;81;21473;-74
2021/10/03 09:24:13;;;;;;;5.83;3.33;;;;;;;23.35;22.92;102171.02;1754582;81;20979;-74
2021/10/03 09:27:03;;;;;;;4.10;2.55;;;;;;;22.94;23.44;102179.51;1754805;81;20857;-75
2021/10/03 09:29:34;;;;;;;8.45;5.15;;;;;;;22.69;23.53;102174.12;1754668;81;21385;-74
2021/10/03 09:32:17;;;;;;;11.08;2.17;;;;;;;22.34;24.30;102185.56;1755064;81;21116;-74
2021/10/03 09:34:49;;;;;;;;;;;;;;;22.02;24.39;102178.04;1751135;81;20928;-74
2021/10/03 09:37:28;;;;;;;6.00;1.82;;;;;;;21.53;25.02;102167.77;1747055;82;20087;-75
2021/10/03 09:40:13;;;;;;;9.23;3.52;;;;;;;21.25;25.80;102158.95;1746646;82;20984;-75
2021/10/03 09:42:40;;;;;;;7.12;2.50;;;;;;;21.31;26.06;102162.46;1747202;82;21000;-74
2021/10/03 09:45:13;;;;;;;4.58;2.00;;;;;;;21.68;25.58;102160.33;1746330;82;21928;-74
2021/10/03 09:47:42;;;;;;;4.78;1.87;;;;;;;22.11;24.95;102155.39;1746080;82;20857;-74
2021/10/03 09:50:11;;;;;;;8.15;3.05;;;;;;;22.56;24.92;102157.80;1745957;82;20904;-75
2021/10/03 09:52:38;;;;;;;12.23;5.12;;;;;;;22.83;24.27;102155.53;1745970;82;20932;-75
2021/10/03 09:55:09;;;;;;;9.65;6.03;;;;;;;23.10;23.55;102158.95;1746012;82;20988;-74
2021/10/03 09:57:38;;;;;;;8.90;3.60;;;;;;;23.32;24.04;102149.86;1746243;82;21541;-74
2021/10/03 10:00:07;;;;;;;11.05;3.10;;;;;;;23.58;23.45;102143.48;1745843;82;20940;-75
2021/10/03 10:02:34;;;;;;;6.97;2.65;;;;;;;23.66;23.30;102140.12;1717398;82;21620;-76
2021/10/03 10:05:01;;;;;;;5.10;2.20;;;;;;;23.74;22.80;102137.56;1746109;82;20912;-75
2021/10/03 10:07:34;;;;;;;10.00;2.02;;;;;;;23.88;22.89;102122.91;1746151;82;20877;-74
2021/10/03 10:10:01;;;;;;;9.28;1.60;;;;;;;24.11;23.14;102122.95;1746125;82;22157;-75
2021/10/03 10:12:28;;;;;;;3.83;1.40;;;;;;;24.39;22.08;102125.23;1746044;82;20960;-74
2021/10/03 10:15:01;;;;;;;8.65;1.98;;;;;;;24.64;21.36;102120.73;1745984;82;20900;-74
2021/10/03 10:17:41;;;;;;;6.87;1.75;;;;;;;24.78;21.29;102129.11;1746145;82;21505;-75
2021/10/03 10:20:24;;;;;;;2.47;1.87;;;;;;;24.89;21.18;102120.02;1746038;82;20884;-74
2021/10/03 10:22:55;;;;;;;8.00;2.15;;;;;;;25.05;21.09;102120.70;1746258;82;21604;-82
2021/10/03 10:25:44;;;;;;;5.60;3.08;;;;;;;25.18;20.44;102114.47;1746058;82;20881;-77
2021/10/03 10:28:34;;;;;;;9.15;2.83;;;;;;;25.18;20.76;102115.81;1746257;82;20948;-78
2021/10/03 10:31:14;;;;;;;9.85;3.10;;;;;;;25.19;20.84;102120.23;1742210;82;20948;-77
2021/10/03 10:34:02;;;;;;;9.15;3.40;;;;;;;25.20;21.05;102126.45;1744427;82;21035;-76
2021/10/03 10:36:35;;;;;;;9.55;3.10;;;;;;;25.27;21.03;102119.97;1738225;82;20862;-80
2021/10/03 10:39:14;;;;;;;6.72;4.30;;;;;;;25.36;20.34;102117.71;1738642;82;20932;-78
2021/10/03 10:41:48;;;;;;;6.10;3.85;;;;;;;25.26;20.18;102124.51;1738287;82;20928;-75
2021/10/03 10:44:33;;;;;;;5.28;2.80;;;;;;;25.09;20.58;102106.50;1738305;82;21042;-77
2021/10/03 10:47:11;;;;;;;7.22;1.85;;;;;;;25.02;20.56;102119.67;1738169;82;20900;-77
2021/10/03 10:49:43;;;;;;;5.03;2.15;;;;;;;24.98;20.56;102116.94;1738209;82;22013;-79
2021/10/03 10:52:25;;;;;;;7.85;2.05;;;;;;;24.93;20.77;102106.66;1738219;82;20919;-77
2021/10/03 10:55:21;;;;;;;6.72;2.40;;;;;;;24.87;21.09;102117.15;1737854;82;20901;-80
2021/10/03 10:57:57;;;;;;;3.90;2.17;;;;;;;24.72;21.12;102119.00;1738203;82;20953;-77
2021/10/03 11:00:26;;;;;;;9.95;2.25;;;;;;;24.38;21.24;102113.30;1738274;82;20933;-79
2021/10/03 11:03:04;;;;;;;5.08;3.30;;;;;;;24.06;21.50;102121.72;1775632;80;21125;-79
2021/10/03 11:05:44;;;;;;;12.05;5.35;;;;;;;23.71;21.98;102114.58;1775236;80;20853;-78
2021/10/03 11:08:21;;;;;;;3.58;2.70;;;;;;;23.40;22.47;102120.56;1738115;82;20936;-80
2021/10/03 11:11:09;;;;;;;9.78;2.85;;;;;;;23.03;22.83;102119.85;1775183;80;21485;-80
2021/10/03 11:13:46;;;;;;;8.33;2.17;;;;;;;22.55;23.08;102124.03;1774795;80;21014;-82
2021/10/03 11:16:43;;;;;;;6.20;2.87;;;;;;;22.10;23.61;102125.66;1775161;80;21133;-78
2021/10/03 11:19:25;;;;;;;10.32;2.83;;;;;;;21.63;24.28;102118.48;1775223;80;20939;-78
2021/10/03 11:21:58;;;;;;;5.92;2.72;;;;;;;21.17;24.69;102118.72;1774308;80;20888;-79
2021/10/03 11:24:30;;;;;;;7.00;3.17;;;;;;;20.85;25.40;102119.02;1775332;80;20932;-80
2021/10/03 11:27:06;;;;;;;3.47;2.62;;;;;;;20.55;26.17;102118.73;1772353;80;20897;-80
2021/10/03 11:29:52;;;;;;;6.67;2.37;;;;;;;20.35;26.43;102118.95;1775194;80;21327;-78
2021/10/03 11:32:23;;;;;;;8.68;2.83;;;;;;;20.12;26.59;102114.05;1774920;80;20956;-78
2021/10/03 11:34:57;;;;;;;7.03;2.92;;;;;;;19.87;26.69;102113.26;1778099;80;21449;-79